Time;durP1;ratioP1;P1;durP2;ratioP2;P2;SDS_P1;SDS_P2;PMS_P1;PMS_P2;Temp;Humidity;BMP_temperature;BMP_pressure;BME280_temperature;BME280_humidity;BME280_pressure;Samples;Min_cycle;Max_cycle;Signal;HPM_P1;HPM_P2
2023/04/23 00:01:50;;;;;;;;;;;10.80;76.00;;;-151.14;100.00;62537.16;4994342;28;19928;-87
2023/04/23 00:04:18;;;;;;;;;;;10.80;75.90;;;-151.14;100.00;62537.16;4994534;28;20129;-86
2023/04/23 00:06:47;;;;;;;;;;;10.80;76.00;;;-151.14;100.00;62537.16;4978329;28;20098;-86
2023/04/23 00:09:15;;;;;;;;;;;10.80;75.80;;;-151.14;100.00;62537.16;4978731;28;19922;-86
2023/04/23 00:11:45;;;;;;;;;;;10.80;75.80;;;-151.14;100.00;62537.16;4995098;28;19921;-87
2023/04/23 00:14:14;;;;;;;;;;;10.80;75.90;;;-151.14;100.00;62537.16;4978156;28;19921;-86
2023/04/23 00:16:43;;;;;;;;;;;10.80;76.00;;;-151.14;100.00;62537.16;5011376;28;19927;-86
2023/04/23 00:19:11;;;;;;;;;;;10.80;76.00;;;-151.14;100.00;62537.16;4978584;28;19922;-87
2023/04/23 00:21:39;;;;;;;;;;;10.80;76.10;;;-151.14;100.00;62537.16;4978024;28;19921;-86
2023/04/23 00:24:07;;;;;;;;;;;10.80;76.00;;;-151.14;100.00;62537.16;5011681;28;19928;-87
2023/04/23 00:26:35;;;;;;;;;;;10.80;76.10;;;-151.14;100.00;62537.16;4978676;28;20122;-87
2023/04/23 00:29:06;;;;;;;;;;;10.80;76.10;;;-151.14;100.00;62537.16;5011995;28;19921;-87
2023/04/23 00:31:34;;;;;;;;;;;10.80;76.10;;;-151.14;100.00;62537.16;4978816;28;19927;-86
2023/04/23 00:34:02;;;;;;;;;;;10.80;76.00;;;-151.14;100.00;62537.16;4994144;28;19922;-87
2023/04/23 00:36:30;;;;;;;;;;;10.80;76.20;;;-151.14;100.00;62537.16;5011137;28;19922;-86
2023/04/23 00:38:58;;;;;;;;;;;10.80;76.10;;;-151.14;100.00;62537.16;5011955;28;19921;-87
2023/04/23 00:41:27;;;;;;;;;;;10.70;76.00;;;-151.14;100.00;62537.16;4994534;28;19922;-86
2023/04/23 00:43:56;;;;;;;;;;;10.70;76.10;;;-151.14;100.00;62537.16;4978448;28;19944;-87
2023/04/23 00:46:26;;;;;;;;;;;10.70;76.00;;;-151.14;100.00;62537.16;4977891;28;19947;-87
2023/04/23 00:48:54;;;;;;;;;;;10.70;76.10;;;-151.14;100.00;62537.16;4978202;28;19921;-87
2023/04/23 00:51:23;;;;;;;;;;;10.70;76.00;;;-151.14;100.00;62537.16;4994341;28;19921;-86
2023/04/23 00:53:51;;;;;;;;;;;10.70;76.10;;;-151.14;100.00;62537.16;4978296;28;20116;-86
2023/04/23 00:56:19;;;;;;;;;;;10.70;76.10;;;-151.14;100.00;62537.16;4993771;28;19927;-86
2023/04/23 00:58:47;;;;;;;;;;;10.70;76.00;;;-151.14;100.00;62537.16;5011774;28;20120;-86
2023/04/23 01:01:17;;;;;;;;;;;10.70;75.90;;;-151.14;100.00;62537.16;4994341;28;19925;-86
2023/04/23 01:03:47;;;;;;;;;;;10.70;76.00;;;-151.14;100.00;62537.16;4978001;28;19922;-87
2023/04/23 01:06:15;;;;;;;;;;;10.70;75.90;;;-151.14;100.00;62537.16;4993566;28;19921;-87
2023/04/23 01:08:43;;;;;;;;;;;10.70;75.80;;;-151.14;100.00;62537.16;5026773;28;19922;-88
2023/04/23 01:11:13;;;;;;;;;;;10.70;75.90;;;-151.14;100.00;62537.16;4994016;28;20209;-88
2023/04/23 01:13:41;;;;;;;;;;;10.70;76.20;;;-151.14;100.00;62537.16;5010434;28;20238;-88
2023/04/23 01:16:09;;;;;;;;;;;10.70;76.00;;;-151.14;100.00;62537.16;4993304;28;19935;-87
2023/04/23 01:22:11;;;;;;;;;;;10.70;76.00;;;-151.14;100.00;62537.16;4997609;28;19924;-86
2023/04/23 01:24:39;;;;;;;;;;;10.70;76.10;;;-151.14;100.00;62537.16;4996817;28;20116;-86
2023/04/23 01:27:08;;;;;;;;;;;10.70;76.20;;;-151.14;100.00;62537.16;4981357;28;19922;-87
2023/04/23 01:29:36;;;;;;;;;;;10.70;75.90;;;-151.14;100.00;62537.16;4997606;28;19921;-87
2023/04/23 01:32:04;;;;;;;;;;;10.70;76.00;;;-151.14;100.00;62537.16;4997363;28;19927;-86
2023/04/23 01:34:33;;;;;;;;;;;10.70;76.10;;;-151.14;100.00;62537.16;4980600;28;20235;-86
2023/04/23 01:37:02;;;;;;;;;;;10.70;76.10;;;-151.14;100.00;62537.16;5013686;28;19922;-86
2023/04/23 01:39:31;;;;;;;;;;;10.70;76.10;;;-151.14;100.00;62537.16;4997377;28;19921;-87
2023/04/23 01:42:00;;;;;;;;;;;10.70;76.20;;;-151.14;100.00;62537.16;4981037;28;20102;-86
2023/04/23 01:44:28;;;;;;;;;;;10.70;76.00;;;-151.14;100.00;62537.16;4996718;28;19921;-86
2023/04/23 01:46:56;;;;;;;;;;;10.70;76.00;;;-151.14;100.00;62537.16;4980980;28;19927;-86
2023/04/23 01:49:24;;;;;;;;;;;10.60;76.00;;;-151.14;100.00;62537.16;4980971;28;20117;-87
2023/04/23 01:51:52;;;;;;;;;;;10.60;75.90;;;-151.14;100.00;62537.16;4980804;28;19921;-86
2023/04/23 01:54:20;;;;;;;;;;;10.60;75.90;;;-151.14;100.00;62537.16;4996688;28;20239;-87
2023/04/23 01:56:54;;;;;;;;;;;10.60;75.80;;;-151.14;100.00;62537.16;4980835;28;20213;-87
2023/04/23 01:59:22;;;;;;;;;;;10.60;75.90;;;-151.14;100.00;62537.16;5013206;28;19922;-86
2023/04/23 02:01:51;;;;;;;;;;;10.60;76.00;;;-151.14;100.00;62537.16;4996979;28;19922;-87
2023/04/23 02:04:19;;;;;;;;;;;10.60;76.00;;;-151.14;100.00;62537.16;4996272;28;19928;-86
2023/04/23 02:06:48;;;;;;;;;;;10.60;75.90;;;-151.14;100.00;62537.16;4997068;28;19921;-86
2023/04/23 02:09:16;;;;;;;;;;;10.60;75.90;;;-151.14;100.00;62537.16;5012954;28;19921;-87
2023/04/23 02:11:44;;;;;;;;;;;10.60;75.80;;;-151.14;100.00;62537.16;4980382;28;19922;-86
2023/04/23 02:14:14;;;;;;;;;;;10.60;76.00;;;-151.14;100.00;62537.16;4979936;28;19922;-87
2023/04/23 02:16:43;;;;;;;;;;;10.60;76.00;;;-151.14;100.00;62537.16;4979486;28;19932;-86
2023/04/23 02:19:11;;;;;;;;;;;10.60;76.00;;;-151.14;100.00;62537.16;4996013;28;19927;-87
2023/04/23 02:21:39;;;;;;;;;;;10.60;75.90;;;-151.14;100.00;62537.16;4980492;28;19935;-86
2023/04/23 02:24:08;;;;;;;;;;;10.60;75.90;;;-151.14;100.00;62537.16;5012439;28;19921;-86
2023/04/23 02:26:37;;;;;;;;;;;10.60;75.90;;;-151.14;100.00;62537.16;4980411;28;20239;-86
2023/04/23 02:29:05;;;;;;;;;;;10.60;75.80;;;-151.14;100.00;62537.16;4996300;28;20213;-86
2023/04/23 02:31:34;;;;;;;;;;;10.60;75.80;;;-151.14;100.00;62537.16;4996106;28;19928;-87
2023/04/23 02:34:02;;;;;;;;;;;10.60;76.00;;;-151.14;100.00;62537.16;4980054;28;19921;-88
2023/04/23 02:36:31;;;;;;;;;;;10.60;76.10;;;-151.14;100.00;62537.16;4996298;28;19947;-87
2023/04/23 02:38:59;;;;;;;;;;;10.60;75.90;;;-151.14;100.00;62537.16;4996294;28;19953;-87
2023/04/23 02:41:27;;;;;;;;;;;10.60;76.00;;;-151.14;100.00;62537.16;4980091;28;19922;-86
2023/04/23 02:43:55;;;;;;;;;;;10.60;75.90;;;-151.14;100.00;62537.16;4996277;28;20109;-87
2023/04/23 02:46:23;;;;;;;;;;;10.50;76.00;;;-151.14;100.00;62537.16;4995765;28;19928;-86
2023/04/23 02:48:53;;;;;;;;;;;10.60;76.00;;;-151.14;100.00;62537.16;4996257;28;19922;-86
2023/04/23 02:51:21;;;;;;;;;;;10.60;75.90;;;-151.14;100.00;62537.16;4996281;28;19922;-86
2023/04/23 02:53:49;;;;;;;;;;;10.50;76.00;;;-151.14;100.00;62537.16;4980162;28;20120;-86
2023/04/23 02:56:18;;;;;;;;;;;10.50;75.90;;;-151.14;100.00;62537.16;4979486;28;19922;-87
2023/04/23 02:58:46;;;;;;;;;;;10.50;76.00;;;-151.14;100.00;62537.16;4980071;28;19928;-86
2023/04/23 03:01:15;;;;;;;;;;;10.60;76.00;;;-151.14;100.00;62537.16;4996088;28;20235;-88
2023/04/23 03:03:43;;;;;;;;;;;10.50;76.20;;;-151.14;100.00;62537.16;4996155;28;19959;-87
2023/04/23 03:06:12;;;;;;;;;;;10.50;76.00;;;-151.14;100.00;62537.16;4978967;28;19928;-87
2023/04/23 03:08:40;;;;;;;;;;;10.50;76.00;;;-151.14;100.00;62537.16;4979905;28;20090;-86
2023/04/23 03:11:09;;;;;;;;;;;10.50;75.90;;;-151.14;100.00;62537.16;5028574;28;19922;-86
2023/04/23 03:13:37;;;;;;;;;;;10.50;76.00;;;-151.14;100.00;62537.16;5012237;28;19921;-86
2023/04/23 03:16:05;;;;;;;;;;;10.50;76.00;;;-151.14;100.00;62537.16;4979041;28;19928;-87
2023/04/23 03:18:33;;;;;;;;;;;10.50;76.10;;;-151.14;100.00;62537.16;4995678;28;19928;-87
2023/04/23 03:21:01;;;;;;;;;;;10.50;76.10;;;-151.14;100.00;62537.16;4995880;28;19922;-86
2023/04/23 03:23:31;;;;;;;;;;;10.50;76.10;;;-151.14;100.00;62537.16;4979373;28;19922;-87
2023/04/23 03:25:59;;;;;;;;;;;10.50;76.20;;;-151.14;100.00;62537.16;4995239;28;19928;-86
2023/04/23 03:28:28;;;;;;;;;;;10.50;76.20;;;-151.14;100.00;62537.16;4995598;28;20258;-86
2023/04/23 03:30:56;;;;;;;;;;;10.50;76.10;;;-151.14;100.00;62537.16;5012073;28;20245;-86
2023/04/23 03:33:24;;;;;;;;;;;10.50;76.30;;;-151.14;100.00;62537.16;5011836;28;19921;-86
2023/04/23 03:35:52;;;;;;;;;;;10.50;76.20;;;-151.14;100.00;62537.16;4978765;28;19921;-87
2023/04/23 03:38:24;;;;;;;;;;;10.50;76.00;;;-151.14;100.00;62537.16;4979332;28;20124;-86
2023/04/23 03:40:56;;;;;;;;;;;10.50;76.40;;;-151.14;100.00;62537.16;5011401;28;19921;-85
2023/04/23 03:43:24;;;;;;;;;;;10.50;76.20;;;-151.14;100.00;62537.16;4978769;28;20152;-85
2023/04/23 03:46:04;;;;;;;;;;;10.50;76.00;;;-151.14;100.00;62537.16;4994881;28;19921;-86
2023/04/23 03:48:36;;;;;;;;;;;10.50;76.10;;;-151.14;100.00;62537.16;4979135;28;20094;-85
2023/04/23 03:51:09;;;;;;;;;;;10.50;76.00;;;-151.14;100.00;62537.16;4995433;28;19932;-85
2023/04/23 03:53:43;;;;;;;;;;;10.50;76.00;;;-151.14;100.00;62537.16;4978896;28;19922;-87
2023/04/23 03:56:35;;;;;;;;;;;10.50;75.90;;;-151.14;100.00;62537.16;4967971;28;19922;-85
2023/04/23 03:59:26;;;;;;;;;;;10.50;75.80;;;-151.14;100.00;62537.16;4990015;28;20110;-86
2023/04/23 04:01:57;;;;;;;;;;;10.60;75.80;;;-151.14;100.00;62537.16;5011410;28;19921;-87
2023/04/23 04:04:27;;;;;;;;;;;10.60;75.50;;;-151.14;100.00;62537.16;5010980;28;19921;-87
2023/04/23 04:06:56;;;;;;;;;;;10.60;75.30;;;-151.14;100.00;62537.16;4978734;28;19927;-85
2023/04/23 04:09:28;;;;;;;;;;;10.60;75.00;;;-151.14;100.00;62537.16;4994974;28;19922;-85
2023/04/23 04:11:58;;;;;;;;;;;10.60;75.00;;;-151.14;100.00;62537.16;4978849;28;19928;-87
2023/04/23 04:14:26;;;;;;;;;;;10.60;74.50;;;-151.14;100.00;62537.16;4978272;28;19928;-85
2023/04/23 04:16:54;;;;;;;;;;;10.70;74.30;;;-151.14;100.00;62537.16;4994945;28;20209;-86
2023/04/23 04:19:22;;;;;;;;;;;10.70;74.20;;;-151.14;100.00;62537.16;4978132;28;19922;-86
2023/04/23 04:21:50;;;;;;;;;;;10.70;73.90;;;-151.14;100.00;62537.16;4994958;28;19928;-86
2023/04/23 04:24:18;;;;;;;;;;;10.70;73.70;;;-151.14;100.00;62537.16;4994125;28;20221;-87
2023/04/23 04:26:46;;;;;;;;;;;10.70;73.20;;;-151.14;100.00;62537.16;4994881;28;19921;-86
2023/04/23 04:29:15;;;;;;;;;;;10.80;73.20;;;-151.14;100.00;62537.16;4978354;28;19928;-86
2023/04/23 04:31:44;;;;;;;;;;;10.80;72.90;;;-151.14;100.00;62537.16;4994855;28;19926;-86
2023/04/23 04:34:13;;;;;;;;;;;10.80;73.50;;;-151.14;100.00;62537.16;4994299;28;19928;-85
2023/04/23 04:36:42;;;;;;;;;;;10.80;73.40;;;-151.14;100.00;62537.16;4994722;28;19922;-86
2023/04/23 04:39:12;;;;;;;;;;;10.90;73.60;;;-151.14;100.00;62537.16;4994464;28;19928;-86
2023/04/23 04:41:41;;;;;;;;;;;10.90;74.30;;;-151.14;100.00;62537.16;4994711;28;19922;-86
2023/04/23 04:44:09;;;;;;;;;;;10.90;73.70;;;-151.14;100.00;62537.16;4977746;28;19922;-86
2023/04/23 04:46:39;;;;;;;;;;;10.90;73.20;;;-151.14;100.00;62537.16;4994448;28;19921;-87
2023/04/23 04:49:08;;;;;;;;;;;10.90;73.70;;;-151.14;100.00;62537.16;4994419;28;19921;-87
2023/04/23 04:51:36;;;;;;;;;;;10.90;73.90;;;-151.14;100.00;62537.16;4978263;28;20120;-85
2023/04/23 04:54:05;;;;;;;;;;;10.90;73.10;;;-151.14;100.00;62537.16;4993481;28;19952;-86
2023/04/23 04:56:33;;;;;;;;;;;10.90;72.90;;;-151.14;100.00;62537.16;4994446;28;19928;-86
2023/04/23 04:59:01;;;;;;;;;;;10.90;72.90;;;-151.14;100.00;62537.16;4994388;28;19928;-87
2023/04/23 05:01:29;;;;;;;;;;;10.90;72.80;;;-151.14;100.00;62537.16;4994470;28;19921;-86
2023/04/23 05:03:59;;;;;;;;;;;10.90;72.40;;;-151.14;100.00;62537.16;4977986;28;20209;-86
2023/04/23 05:06:28;;;;;;;;;;;11.00;72.50;;;-151.14;100.00;62537.16;4994117;28;19922;-86
2023/04/23 05:08:56;;;;;;;;;;;10.90;72.80;;;-151.14;100.00;62537.16;4977891;28;19929;-86
2023/04/23 05:11:26;;;;;;;;;;;10.90;73.30;;;-151.14;100.00;62537.16;4991031;28;19922;-86
2023/04/23 05:13:54;;;;;;;;;;;11.00;73.70;;;-151.14;100.00;62537.16;4991049;28;19928;-86
2023/04/23 05:16:22;;;;;;;;;;;11.00;74.70;;;-151.14;100.00;62537.16;4974180;28;20124;-87
2023/04/23 05:18:51;;;;;;;;;;;11.10;75.20;;;-151.14;100.00;62537.16;4991945;28;19928;-86
2023/04/23 05:21:20;;;;;;;;;;;11.20;75.30;;;-151.14;100.00;62537.16;4992379;28;19928;-87
2023/04/23 05:23:48;;;;;;;;;;;11.30;75.00;;;-151.14;100.00;62537.16;4994029;28;20238;-87
2023/04/23 05:26:17;;;;;;;;;;;11.40;75.40;;;-151.14;100.00;62537.16;4977177;28;19921;-87
2023/04/23 05:28:45;;;;;;;;;;;11.50;74.50;;;-151.14;100.00;62537.16;4977810;28;19922;-85
2023/04/23 05:31:13;;;;;;;;;;;11.50;74.20;;;-151.14;100.00;62537.16;4993981;28;20227;-87
2023/04/23 05:33:43;;;;;;;;;;;11.60;74.10;;;-151.14;100.00;62537.16;4993852;28;20217;-87
2023/04/23 05:36:11;;;;;;;;;;;11.70;74.10;;;-151.14;100.00;62537.16;4993423;28;19928;-87
2023/04/23 05:38:41;;;;;;;;;;;11.70;73.90;;;-151.14;100.00;62537.16;4993816;28;19925;-85
2023/04/23 05:41:09;;;;;;;;;;;11.80;73.80;;;-151.14;100.00;62537.16;5026753;28;19922;-86
2023/04/23 05:43:37;;;;;;;;;;;11.70;73.80;;;-151.14;100.00;62537.16;5010049;28;19922;-87
2023/04/23 05:46:06;;;;;;;;;;;11.80;73.60;;;-151.14;100.00;62537.16;5009636;28;19921;-86
2023/04/23 05:48:34;;;;;;;;;;;11.80;73.60;;;-151.14;100.00;62537.16;4977501;28;19921;-86
2023/04/23 05:51:02;;;;;;;;;;;11.70;73.70;;;-151.14;100.00;62537.16;4977629;28;19921;-85
2023/04/23 05:53:30;;;;;;;;;;;11.80;73.70;;;-151.14;100.00;62537.16;4993557;28;19928;-87
2023/04/23 05:55:59;;;;;;;;;;;11.80;73.80;;;-151.14;100.00;62537.16;4976985;28;19928;-86
2023/04/23 05:58:27;;;;;;;;;;;11.80;73.70;;;-151.14;100.00;62537.16;4993447;28;19921;-87
2023/04/23 06:00:56;;;;;;;;;;;11.80;73.70;;;-151.14;100.00;62537.16;4993706;28;19928;-86
2023/04/23 06:03:25;;;;;;;;;;;11.80;73.60;;;-151.14;100.00;62537.16;5009777;28;19929;-86
2023/04/23 06:05:53;;;;;;;;;;;11.90;73.70;;;-151.14;100.00;62537.16;5012587;28;19921;-86
2023/04/23 06:08:21;;;;;;;;;;;11.90;73.60;;;-151.14;100.00;62537.16;4980515;28;20102;-88
2023/04/23 06:10:49;;;;;;;;;;;11.90;73.60;;;-151.14;100.00;62537.16;4996835;28;20220;-87
2023/04/23 06:13:19;;;;;;;;;;;12.00;73.60;;;-151.14;100.00;62537.16;5012932;28;19922;-86
2023/04/23 06:15:47;;;;;;;;;;;12.00;73.50;;;-151.14;100.00;62537.16;4996455;28;19928;-86
2023/04/23 06:18:15;;;;;;;;;;;12.00;73.60;;;-151.14;100.00;62537.16;4980558;28;19927;-87
2023/04/23 06:20:43;;;;;;;;;;;12.00;73.50;;;-151.14;100.00;62537.16;4996759;28;19921;-86
2023/04/23 06:23:12;;;;;;;;;;;12.00;73.50;;;-151.14;100.00;62537.16;4996659;28;19928;-87
2023/04/23 06:25:40;;;;;;;;;;;12.00;74.20;;;-151.14;100.00;62537.16;4996037;28;19921;-87
2023/04/23 06:28:08;;;;;;;;;;;12.10;73.40;;;-151.14;100.00;62537.16;5013003;28;19922;-88
2023/04/23 06:30:49;;;;;;;;;;;12.10;73.50;;;-151.14;100.00;62537.16;4980357;28;19921;-87
2023/04/23 06:33:17;;;;;;;;;;;12.10;73.30;;;-151.14;100.00;62537.16;4980350;28;19928;-87
2023/04/23 06:35:46;;;;;;;;;;;12.10;73.30;;;-151.14;100.00;62537.16;4979534;28;19921;-86
2023/04/23 06:38:14;;;;;;;;;;;12.10;73.40;;;-151.14;100.00;62537.16;4980216;28;19922;-86
2023/04/23 06:40:42;;;;;;;;;;;12.20;73.40;;;-151.14;100.00;62537.16;4996511;28;19922;-87
2023/04/23 06:43:10;;;;;;;;;;;12.20;73.30;;;-151.14;100.00;62537.16;4980201;28;19922;-87
2023/04/23 06:46:00;;;;;;;;;;;12.20;73.10;;;-151.14;100.00;62537.16;4994457;28;19921;-86
2023/04/23 06:48:28;;;;;;;;;;;12.20;73.10;;;-151.14;100.00;62537.16;4996144;28;19921;-88
2023/04/23 06:50:56;;;;;;;;;;;12.30;73.10;;;-151.14;100.00;62537.16;4996297;28;19921;-89
2023/04/23 06:53:24;;;;;;;;;;;12.30;73.10;;;-151.14;100.00;62537.16;5012640;28;20116;-88
2023/04/23 06:55:52;;;;;;;;;;;12.30;73.00;;;-151.14;100.00;62537.16;4979523;28;19944;-87
2023/04/23 06:58:22;;;;;;;;;;;12.30;73.00;;;-151.14;100.00;62537.16;4996125;28;19922;-89
2023/04/23 07:00:50;;;;;;;;;;;12.30;72.90;;;-151.14;100.00;62537.16;4980020;28;20094;-87
2023/04/23 07:03:20;;;;;;;;;;;12.30;72.80;;;-151.14;100.00;62537.16;4996258;28;19922;-88
2023/04/23 07:05:48;;;;;;;;;;;12.30;72.90;;;-151.14;100.00;62537.16;4979118;28;20212;-88
2023/04/23 07:08:17;;;;;;;;;;;12.30;72.80;;;-151.14;100.00;62537.16;4995810;28;20205;-87
2023/04/23 07:10:45;;;;;;;;;;;12.30;72.80;;;-151.14;100.00;62537.16;4979733;28;19922;-88
2023/04/23 07:13:13;;;;;;;;;;;12.30;72.80;;;-151.14;100.00;62537.16;4995974;28;19921;-87
2023/04/23 07:15:41;;;;;;;;;;;12.30;72.90;;;-151.14;100.00;62537.16;4995130;28;20094;-88
2023/04/23 07:18:09;;;;;;;;;;;12.30;73.00;;;-151.14;100.00;62537.16;4995755;28;19922;-88
2023/04/23 07:20:39;;;;;;;;;;;12.30;73.00;;;-151.14;100.00;62537.16;4995789;28;19927;-87
2023/04/23 07:23:06;;;;;;;;;;;12.30;73.00;;;-151.14;100.00;62537.16;4995750;28;20113;-87
2023/04/23 07:25:35;;;;;;;;;;;12.30;73.10;;;-151.14;100.00;62537.16;4978905;28;20210;-86
2023/04/23 07:28:03;;;;;;;;;;;12.30;73.10;;;-151.14;100.00;62537.16;4979477;28;19928;-87
2023/04/23 07:30:31;;;;;;;;;;;12.30;73.10;;;-151.14;100.00;62537.16;5028527;28;19921;-87
2023/04/23 07:32:59;;;;;;;;;;;12.30;73.10;;;-151.14;100.00;62537.16;5028307;28;20227;-86
2023/04/23 07:35:27;;;;;;;;;;;12.30;73.00;;;-151.14;100.00;62537.16;5027764;28;20116;-87
2023/04/23 07:37:57;;;;;;;;;;;12.30;73.00;;;-151.14;100.00;62537.16;4979512;28;19921;-87
2023/04/23 07:40:25;;;;;;;;;;;12.30;72.90;;;-151.14;100.00;62537.16;5012965;28;20132;-87
2023/04/23 07:42:53;;;;;;;;;;;12.30;72.80;;;-151.14;100.00;62537.16;5011726;28;19928;-88
2023/04/23 07:45:21;;;;;;;;;;;12.30;72.90;;;-151.14;100.00;62537.16;4978561;28;19921;-87
2023/04/23 07:47:50;;;;;;;;;;;12.40;72.80;;;-151.14;100.00;62537.16;4995342;28;19928;-87
2023/04/23 07:50:18;;;;;;;;;;;12.30;72.80;;;-151.14;100.00;62537.16;4995509;28;19921;-87
2023/04/23 07:52:46;;;;;;;;;;;12.40;72.80;;;-151.14;100.00;62537.16;4995236;28;20320;-88
2023/04/23 07:55:16;;;;;;;;;;;12.40;72.80;;;-151.14;100.00;62537.16;4978604;28;19921;-87
2023/04/23 07:57:44;;;;;;;;;;;12.40;72.80;;;-151.14;100.00;62537.16;4979046;28;19936;-87
2023/04/23 08:00:13;;;;;;;;;;;12.40;72.80;;;-151.14;100.00;62537.16;4979083;28;20121;-88
2023/04/23 08:02:41;;;;;;;;;;;12.40;72.80;;;-151.14;100.00;62537.16;4979098;28;19921;-88
2023/04/23 08:05:10;;;;;;;;;;;12.40;72.80;;;-151.14;100.00;62537.16;4994512;28;19921;-88
2023/04/23 08:07:38;;;;;;;;;;;12.40;72.80;;;-151.14;100.00;62537.16;4994573;28;20206;-88
2023/04/23 08:10:07;;;;;;;;;;;12.40;72.70;;;-151.14;100.00;62537.16;4995174;28;19922;-86
2023/04/23 08:12:36;;;;;;;;;;;12.40;72.70;;;-151.14;100.00;62537.16;4994962;28;19921;-87
2023/04/23 08:15:05;;;;;;;;;;;12.40;72.80;;;-151.14;100.00;62537.16;4994307;28;19928;-87
2023/04/23 08:17:39;;;;;;;;;;;12.40;72.80;;;-151.14;100.00;62537.16;4995087;28;19926;-87
2023/04/23 08:20:08;;;;;;;;;;;12.40;72.80;;;-151.14;100.00;62537.16;4978659;28;20147;-88
2023/04/23 08:22:38;;;;;;;;;;;12.40;72.80;;;-151.14;100.00;62537.16;4978790;28;19922;-88
2023/04/23 08:25:07;;;;;;;;;;;12.40;73.00;;;-151.14;100.00;62537.16;4994137;28;19928;-87
2023/04/23 08:27:36;;;;;;;;;;;12.40;73.10;;;-151.14;100.00;62537.16;4994292;28;19922;-88
2023/04/23 08:30:06;;;;;;;;;;;12.30;73.20;;;-151.14;100.00;62537.16;4978668;28;20216;-87
2023/04/23 08:32:34;;;;;;;;;;;12.30;73.40;;;-151.14;100.00;62537.16;4994774;28;19921;-87
2023/04/23 08:35:03;;;;;;;;;;;12.30;73.50;;;-151.14;100.00;62537.16;4978085;28;19921;-87
2023/04/23 08:37:31;;;;;;;;;;;12.30;73.50;;;-151.14;100.00;62537.16;4994644;28;19928;-87
2023/04/23 08:40:00;;;;;;;;;;;12.20;73.60;;;-151.14;100.00;62537.16;4994567;28;19926;-87
2023/04/23 08:42:33;;;;;;;;;;;12.20;73.70;;;-151.14;100.00;62537.16;4994521;28;20120;-87
2023/04/23 08:45:02;;;;;;;;;;;12.20;73.70;;;-151.14;100.00;62537.16;4977884;28;19944;-88
2023/04/23 08:47:31;;;;;;;;;;;12.20;73.80;;;-151.14;100.00;62537.16;4994365;28;20117;-87
2023/04/23 08:49:59;;;;;;;;;;;12.20;73.80;;;-151.14;100.00;62537.16;4994543;28;19922;-87
2023/04/23 08:52:28;;;;;;;;;;;12.20;73.90;;;-151.14;100.00;62537.16;4978240;28;19928;-86
2023/04/23 08:54:59;;;;;;;;;;;12.20;74.00;;;-151.14;100.00;62537.16;4994111;28;19922;-88
2023/04/23 08:57:27;;;;;;;;;;;12.20;74.00;;;-151.14;100.00;62537.16;4994430;28;19928;-88
2023/04/23 08:59:55;;;;;;;;;;;12.20;74.00;;;-151.14;100.00;62537.16;4978215;28;19921;-89
2023/04/23 09:02:25;;;;;;;;;;;12.20;74.00;;;-151.14;100.00;62537.16;4978071;28;20239;-88
2023/04/23 09:04:53;;;;;;;;;;;12.20;74.00;;;-151.14;100.00;62537.16;4977628;28;19921;-87
2023/04/23 09:07:22;;;;;;;;;;;12.20;74.00;;;-151.14;100.00;62537.16;4994143;28;19928;-88
2023/04/23 09:09:50;;;;;;;;;;;12.20;73.90;;;-151.14;100.00;62537.16;5009061;23;19927;-84
2023/04/23 09:12:18;;;;;;;;;;;12.20;73.90;;;-151.14;100.00;62537.16;4978114;28;19926;-84
2023/04/23 09:14:46;;;;;;;;;;;12.20;74.00;;;-151.14;100.00;62537.16;4977528;28;19921;-84
2023/04/23 09:17:14;;;;;;;;;;;12.10;74.20;;;-151.14;100.00;62537.16;4994319;28;20116;-84
2023/04/23 09:19:44;;;;;;;;;;;12.10;74.20;;;-151.14;100.00;62537.16;5010475;28;19943;-84
2023/04/23 09:22:12;;;;;;;;;;;12.10;74.30;;;-151.14;100.00;62537.16;4994124;28;19928;-84
2023/04/23 09:24:42;;;;;;;;;;;12.10;74.30;;;-151.14;100.00;62537.16;4977404;28;19927;-84
2023/04/23 09:27:10;;;;;;;;;;;12.10;74.30;;;-151.14;100.00;62537.16;4993743;28;19922;-85
2023/04/23 09:29:38;;;;;;;;;;;12.10;74.30;;;-151.14;100.00;62537.16;4993956;28;20123;-84
2023/04/23 09:32:07;;;;;;;;;;;12.20;74.30;;;-151.14;100.00;62537.16;5011432;28;20120;-84
2023/04/23 09:34:35;;;;;;;;;;;12.10;74.40;;;-151.14;100.00;62537.16;4977371;28;19922;-84
2023/04/23 09:37:06;;;;;;;;;;;12.10;74.30;;;-151.14;100.00;62537.16;4978078;28;19922;-85
2023/04/23 09:39:35;;;;;;;;;;;12.10;74.40;;;-151.14;100.00;62537.16;4978595;28;19922;-85
2023/04/23 09:42:04;;;;;;;;;;;12.10;74.40;;;-151.14;100.00;62537.16;4982073;28;19930;-84
2023/04/23 09:44:32;;;;;;;;;;;12.10;74.40;;;-151.14;100.00;62537.16;4997614;28;19927;-85
2023/04/23 09:47:08;;;;;;;;;;;12.10;74.30;;;-151.14;100.00;62537.16;4981786;28;19921;-85
2023/04/23 09:49:46;;;;;;;;;;;12.10;74.30;;;-151.14;100.00;62537.16;4981731;28;19927;-85
2023/04/23 09:52:15;;;;;;;;;;;12.10;74.40;;;-151.14;100.00;62537.16;4981492;28;19953;-85
2023/04/23 09:54:45;;;;;;;;;;;12.10;74.40;;;-151.14;100.00;62537.16;4997536;28;19921;-85
2023/04/23 09:57:13;;;;;;;;;;;12.10;74.40;;;-151.14;100.00;62537.16;4986616;28;19916;-85
2023/04/23 09:59:43;;;;;;;;;;;12.10;74.50;;;-151.14;100.00;62537.16;4999901;28;20273;-85
2023/04/23 10:02:11;;;;;;;;;;;12.10;74.60;;;-151.14;100.00;62537.16;4968168;28;19944;-85
2023/04/23 10:04:40;;;;;;;;;;;12.00;74.60;;;-151.14;100.00;62537.16;4974842;28;19921;-86
2023/04/23 10:07:12;;;;;;;;;;;12.00;74.80;;;-151.14;100.00;62537.16;4984422;28;20208;-86
2023/04/23 10:09:42;;;;;;;;;;;12.00;74.80;;;-151.14;100.00;62537.16;4981028;28;20235;-85
2023/04/23 10:12:10;;;;;;;;;;;12.00;74.90;;;-151.14;100.00;62537.16;4997162;28;19922;-85
2023/04/23 10:14:38;;;;;;;;;;;12.00;74.90;;;-151.14;100.00;62537.16;4996871;28;19927;-85
2023/04/23 10:17:07;;;;;;;;;;;11.90;75.10;;;-151.14;100.00;62537.16;4980886;28;19928;-85
2023/04/23 10:19:35;;;;;;;;;;;11.90;75.10;;;-151.14;100.00;62537.16;4980887;28;19922;-85
2023/04/23 10:22:06;;;;;;;;;;;11.90;75.20;;;-151.14;100.00;62537.16;4980893;28;19921;-86
2023/04/23 10:24:35;;;;;;;;;;;11.90;75.30;;;-151.14;100.00;62537.16;4980388;28;19922;-85
2023/04/23 10:27:05;;;;;;;;;;;11.90;75.30;;;-151.14;100.00;62537.16;4980770;28;19921;-86
2023/04/23 10:29:34;;;;;;;;;;;11.90;75.40;;;-151.14;100.00;62537.16;4981009;28;19928;-85
2023/04/23 10:32:02;;;;;;;;;;;11.90;75.50;;;-151.14;100.00;62537.16;4997185;28;19928;-85
2023/04/23 10:34:33;;;;;;;;;;;11.80;75.50;;;-151.14;100.00;62537.16;4980176;28;19921;-85
2023/04/23 10:37:02;;;;;;;;;;;11.80;75.50;;;-151.14;100.00;62537.16;4996872;28;19922;-85
2023/04/23 10:39:32;;;;;;;;;;;11.80;75.50;;;-151.14;100.00;62537.16;4980615;28;19921;-85
2023/04/23 10:42:00;;;;;;;;;;;11.80;75.60;;;-151.14;100.00;62537.16;4980689;28;19922;-85
2023/04/23 10:44:37;;;;;;;;;;;11.80;75.60;;;-151.14;100.00;62537.16;4996328;28;20120;-85
2023/04/23 10:47:05;;;;;;;;;;;11.80;75.60;;;-151.14;100.00;62537.16;4980663;28;20220;-85
2023/04/23 10:49:34;;;;;;;;;;;11.90;75.70;;;-151.14;100.00;62537.16;4996812;28;20231;-86
2023/04/23 10:52:03;;;;;;;;;;;11.90;75.60;;;-151.14;100.00;62537.16;4979913;28;19928;-86
2023/04/23 10:54:31;;;;;;;;;;;11.90;75.70;;;-151.14;100.00;62537.16;4996052;28;19922;-86
2023/04/23 10:57:02;;;;;;;;;;;11.90;75.70;;;-151.14;100.00;62537.16;4996569;28;19922;-86
2023/04/23 10:59:30;;;;;;;;;;;11.90;75.60;;;-151.14;100.00;62537.16;4980293;28;19922;-86
2023/04/23 11:02:06;;;;;;;;;;;11.90;75.60;;;-151.14;100.00;62537.16;4996407;28;19928;-85
2023/04/23 11:04:35;;;;;;;;;;;11.90;75.60;;;-151.14;100.00;62537.16;4995735;28;19928;-86
2023/04/23 11:07:06;;;;;;;;;;;11.90;76.40;;;-151.14;100.00;62537.16;4995017;28;19928;-85